Time;durP1;ratioP1;P1;durP2;ratioP2;P2;SDS_P1;SDS_P2;PMS_P1;PMS_P2;Temp;Humidity;BMP_temperature;BMP_pressure;BME280_temperature;BME280_humidity;BME280_pressure;Samples;Min_cycle;Max_cycle;Signal;HPM_P1;HPM_P2
2022/12/09 00:00:25;;;;;;;61.88;34.40;;;4.90;99.90;;;;;;5052697;28;20468;-82
2022/12/09 00:02:51;;;;;;;57.85;32.75;;;4.90;99.90;;;;;;5053145;28;20017;-83
2022/12/09 00:05:17;;;;;;;59.28;33.40;;;4.80;99.90;;;;;;5053759;28;20033;-82
2022/12/09 00:07:42;;;;;;;69.80;38.35;;;4.80;99.90;;;;;;5053374;28;20381;-82
2022/12/09 00:10:08;;;;;;;61.85;36.67;;;4.80;99.90;;;;;;5053178;28;20037;-82
2022/12/09 00:12:34;;;;;;;101.97;56.58;;;4.70;99.90;;;;;;5053027;28;20025;-82
2022/12/09 00:14:59;;;;;;;78.70;43.53;;;4.70;99.90;;;;;;5053799;28;20037;-82
2022/12/09 00:17:25;;;;;;;61.45;34.45;;;4.60;99.90;;;;;;5053353;28;20520;-82
2022/12/09 00:19:50;;;;;;;64.38;35.40;;;4.70;99.90;;;;;;5053467;28;20025;-82
2022/12/09 00:22:16;;;;;;;64.68;34.20;;;4.80;99.90;;;;;;5053279;28;20028;-83
2022/12/09 00:24:41;;;;;;;60.60;33.22;;;4.90;99.90;;;;;;5053247;28;20032;-82
2022/12/09 00:27:07;;;;;;;66.95;36.05;;;4.90;99.90;;;;;;5052870;28;20036;-83
2022/12/09 00:29:33;;;;;;;114.88;61.08;;;4.90;99.90;;;;;;5053305;28;20032;-83
2022/12/09 00:31:58;;;;;;;54.97;33.72;;;4.80;99.90;;;;;;5053253;28;20127;-82
2022/12/09 00:34:27;;;;;;;53.55;30.90;;;4.70;99.90;;;;;;5053343;28;20021;-82
2022/12/09 00:36:52;;;;;;;50.75;29.02;;;4.80;99.90;;;;;;5053948;28;20035;-82
2022/12/09 00:39:18;;;;;;;55.28;30.35;;;4.80;99.90;;;;;;5053793;28;20425;-82
2022/12/09 00:41:44;;;;;;;50.80;29.33;;;4.90;99.90;;;;;;5053059;28;20024;-82
2022/12/09 00:44:11;;;;;;;58.30;30.55;;;4.90;99.90;;;;;;5052997;28;20120;-83
2022/12/09 00:46:36;;;;;;;71.63;33.05;;;4.80;99.90;;;;;;5051355;28;20119;-82
2022/12/09 00:49:03;;;;;;;59.83;32.10;;;4.80;99.90;;;;;;5052741;28;20105;-82
2022/12/09 00:51:29;;;;;;;61.63;33.05;;;4.80;99.90;;;;;;5053167;28;20090;-82
2022/12/09 00:53:54;;;;;;;64.10;33.03;;;4.80;99.90;;;;;;5052097;28;20037;-82
2022/12/09 00:56:27;;;;;;;59.40;34.20;;;5.30;99.90;;;;;;5052009;28;20486;-83
2022/12/09 00:58:53;;;;;;;74.70;42.50;;;4.60;99.90;;;;;;5052993;28;20466;-82
2022/12/09 01:01:19;;;;;;;57.97;32.47;;;4.60;99.90;;;;;;5052495;28;20025;-83
2022/12/09 01:03:44;;;;;;;66.93;36.78;;;4.60;99.90;;;;;;5052402;28;20056;-83
2022/12/09 01:06:19;;;;;;;57.03;32.65;;;4.50;99.90;;;;;;5052125;28;20060;-82
2022/12/09 01:08:45;;;;;;;92.80;47.58;;;4.50;99.90;;;;;;5052202;28;20019;-83
2022/12/09 01:11:15;;;;;;;60.90;33.55;;;4.50;99.90;;;;;;5051834;28;20045;-82
2022/12/09 01:13:41;;;;;;;56.88;32.47;;;4.50;99.90;;;;;;5051020;28;20055;-82
2022/12/09 01:16:18;;;;;;;67.70;38.05;;;4.60;99.90;;;;;;5051863;28;20398;-82
2022/12/09 01:18:45;;;;;;;55.85;32.55;;;4.60;99.90;;;;;;5052165;28;20559;-82
2022/12/09 01:21:12;;;;;;;62.97;33.15;;;4.50;99.90;;;;;;5052562;28;20508;-82
2022/12/09 01:23:37;;;;;;;54.20;31.33;;;4.50;99.90;;;;;;5050367;28;20395;-82
2022/12/09 01:26:05;;;;;;;77.47;34.53;;;4.30;99.90;;;;;;5051879;28;20025;-82
2022/12/09 01:28:33;;;;;;;67.15;32.50;;;4.30;99.90;;;;;;5048267;28;20396;-82
2022/12/09 01:31:21;;;;;;;64.03;33.33;;;4.20;99.90;;;;;;5052331;28;20059;-82
2022/12/09 01:33:47;;;;;;;59.97;30.88;;;4.40;99.90;;;;;;5046514;28;20013;-83
2022/12/09 01:36:21;;;;;;;57.58;32.00;;;4.40;99.90;;;;;;5032815;28;20105;-82
2022/12/09 01:38:47;;;;;;;53.33;30.60;;;4.30;99.90;;;;;;5032213;28;20029;-82
2022/12/09 01:41:15;;;;;;;62.25;35.05;;;4.30;99.90;;;;;;5031660;28;20156;-82
2022/12/09 01:43:41;;;;;;;53.20;30.42;;;4.40;99.90;;;;;;5031833;28;20134;-82
2022/12/09 01:46:07;;;;;;;47.75;26.70;;;4.20;99.90;;;;;;5048438;28;20472;-83
2022/12/09 01:48:39;;;;;;;52.75;26.80;;;4.00;99.90;;;;;;5051915;28;20493;-82
2022/12/09 01:51:15;;;;;;;47.50;24.98;;;4.10;99.90;;;;;;5052439;28;20134;-82
2022/12/09 01:53:44;;;;;;;45.13;26.13;;;4.20;99.90;;;;;;5051433;28;20017;-82
2022/12/09 01:56:18;;;;;;;52.85;26.65;;;4.20;99.90;;;;;;5054259;28;20029;-82
2022/12/09 01:58:45;;;;;;;48.15;25.92;;;4.30;99.90;;;;;;5058565;28;20036;-82
2022/12/09 02:01:11;;;;;;;42.38;24.50;;;4.10;99.90;;;;;;5058816;28;20029;-82
2022/12/09 02:03:36;;;;;;;43.80;23.08;;;4.00;99.90;;;;;;5058808;28;20025;-82
2022/12/09 02:06:02;;;;;;;35.10;19.88;;;4.00;99.90;;;;;;5058436;28;20044;-82
2022/12/09 02:08:28;;;;;;;37.47;22.92;;;3.90;99.90;;;;;;5057329;28;20029;-83
2022/12/09 02:11:13;;;;;;;41.03;24.63;;;3.80;99.90;;;;;;5058221;28;20064;-82
2022/12/09 02:13:43;;;;;;;35.45;21.27;;;4.20;99.90;;;;;;5058017;28;20078;-82
2022/12/09 02:16:14;;;;;;;35.67;22.48;;;3.90;99.90;;;;;;5057249;28;20087;-82
2022/12/09 02:18:57;;;;;;;37.65;22.38;;;3.90;99.90;;;;;;5051642;28;20056;-82
2022/12/09 02:21:36;;;;;;;37.78;21.75;;;3.90;99.90;;;;;;5057993;28;20033;-82
2022/12/09 02:24:21;;;;;;;36.50;20.27;;;3.80;99.90;;;;;;5038576;28;20095;-82
2022/12/09 02:26:58;;;;;;;24.98;16.75;;;3.90;99.90;;;;;;5038813;28;20021;-82
2022/12/09 02:30:10;;;;;;;32.85;18.13;;;3.80;99.90;;;;;;5058063;28;20031;-82
2022/12/09 02:32:54;;;;;;;25.55;15.35;;;3.70;99.90;;;;;;5020316;28;20037;-82
2022/12/09 02:35:44;;;;;;;22.70;15.10;;;3.70;99.90;;;;;;5024406;28;20131;-82
2022/12/09 02:38:17;;;;;;;22.70;13.82;;;3.50;99.90;;;;;;5018928;28;20411;-82
2022/12/09 02:40:51;;;;;;;27.20;16.63;;;3.50;99.90;;;;;;5035541;28;20048;-82
2022/12/09 02:43:21;;;;;;;22.40;14.82;;;3.60;99.90;;;;;;5034978;28;20442;-82
2022/12/09 02:45:48;;;;;;;30.40;15.88;;;3.70;99.90;;;;;;5034678;28;20116;-82
2022/12/09 02:48:17;;;;;;;28.10;16.95;;;3.90;99.90;;;;;;5035739;28;20047;-82
2022/12/09 02:50:44;;;;;;;25.30;15.48;;;4.00;99.90;;;;;;5035587;28;20044;-82
2022/12/09 02:53:12;;;;;;;25.60;15.57;;;3.70;99.90;;;;;;5035143;28;20128;-82
2022/12/09 02:55:41;;;;;;;22.23;12.02;;;3.80;99.90;;;;;;5035371;28;20034;-82
2022/12/09 02:58:07;;;;;;;22.20;14.15;;;3.80;99.90;;;;;;5035327;28;20032;-82
2022/12/09 03:00:33;;;;;;;24.23;14.13;;;4.10;99.90;;;;;;5035732;28;20030;-82
2022/12/09 03:03:01;;;;;;;23.30;15.10;;;4.10;99.90;;;;;;5035722;28;20513;-83
2022/12/09 03:05:40;;;;;;;21.88;14.25;;;4.00;99.90;;;;;;5038279;28;20080;-82
2022/12/09 03:08:35;;;;;;;25.20;15.77;;;3.90;99.90;;;;;;5054647;28;20037;-82
2022/12/09 03:11:11;;;;;;;21.13;13.95;;;3.90;99.90;;;;;;5054108;28;20049;-82
2022/12/09 03:14:01;;;;;;;88.78;42.25;;;4.00;99.90;;;;;;5054138;28;20013;-82
2022/12/09 03:16:42;;;;;;;46.75;24.40;;;4.10;99.90;;;;;;5054273;28;20029;-82
2022/12/09 03:19:26;;;;;;;80.25;36.15;;;4.10;99.90;;;;;;5054164;28;20071;-82
2022/12/09 03:21:56;;;;;;;20.00;13.13;;;4.20;99.90;;;;;;5036161;28;20507;-82
2022/12/09 03:24:32;;;;;;;28.23;15.52;;;4.20;99.90;;;;;;5054302;28;20021;-82
2022/12/09 03:26:59;;;;;;;22.95;13.07;;;4.20;99.90;;;;;;5054199;28;20033;-82
2022/12/09 03:29:27;;;;;;;111.95;52.38;;;4.20;99.90;;;;;;5054114;28;20036;-82
2022/12/09 03:31:55;;;;;;;19.52;12.93;;;4.30;99.90;;;;;;5054149;28;20040;-82
2022/12/09 03:34:25;;;;;;;17.90;12.32;;;4.30;99.90;;;;;;5069980;28;20025;-82
2022/12/09 03:36:52;;;;;;;21.90;13.38;;;4.20;99.90;;;;;;5058953;28;20041;-82
2022/12/09 03:39:24;;;;;;;20.25;13.18;;;4.20;99.90;;;;;;5054105;28;20035;-82
2022/12/09 03:42:03;;;;;;;22.15;14.43;;;4.10;99.90;;;;;;5053721;28;20033;-82
2022/12/09 03:44:40;;;;;;;20.30;13.20;;;4.00;99.90;;;;;;5053170;28;20110;-83
2022/12/09 03:47:08;;;;;;;22.02;14.93;;;3.90;99.90;;;;;;5052804;28;20033;-83
2022/12/09 03:49:34;;;;;;;20.55;13.98;;;3.90;99.90;;;;;;5053788;28;20142;-82
2022/12/09 03:52:18;;;;;;;20.83;13.50;;;3.90;99.90;;;;;;5053500;28;20045;-83
2022/12/09 03:54:46;;;;;;;20.75;12.88;;;3.90;99.90;;;;;;5050133;28;20021;-82
2022/12/09 03:57:16;;;;;;;21.35;14.00;;;3.90;99.90;;;;;;5053659;28;20474;-82
2022/12/09 03:59:45;;;;;;;19.23;11.82;;;4.00;99.90;;;;;;5053558;28;20035;-81
2022/12/09 04:02:11;;;;;;;20.45;13.68;;;4.00;99.90;;;;;;5053395;28;20025;-82
2022/12/09 04:04:41;;;;;;;24.27;15.65;;;4.00;99.90;;;;;;5053367;28;20033;-82
2022/12/09 04:07:07;;;;;;;22.70;15.18;;;3.70;99.90;;;;;;5054279;28;20059;-82
2022/12/09 04:09:33;;;;;;;28.35;16.95;;;3.80;99.90;;;;;;5052771;28;20485;-82
2022/12/09 04:11:58;;;;;;;22.55;14.48;;;3.80;99.90;;;;;;5053458;28;20043;-82
2022/12/09 04:14:24;;;;;;;20.45;14.10;;;4.10;99.90;;;;;;5052971;28;20021;-82
2022/12/09 04:16:50;;;;;;;21.55;13.98;;;3.80;99.90;;;;;;5053280;28;20028;-82
2022/12/09 04:19:16;;;;;;;22.35;13.80;;;3.90;99.90;;;;;;5052472;28;20402;-82
2022/12/09 04:21:41;;;;;;;27.42;15.27;;;3.90;99.90;;;;;;5052861;28;20107;-83
2022/12/09 04:24:08;;;;;;;22.30;14.85;;;4.00;99.90;;;;;;5052616;28;20661;-83
2022/12/09 04:26:34;;;;;;;19.52;13.55;;;4.00;99.90;;;;;;5053492;28;20032;-82
2022/12/09 04:28:59;;;;;;;21.92;13.68;;;4.00;99.90;;;;;;5053005;28;20405;-83
2022/12/09 04:31:25;;;;;;;24.13;14.82;;;4.00;99.90;;;;;;5053047;28;20041;-82
2022/12/09 04:33:51;;;;;;;18.52;11.95;;;4.10;99.90;;;;;;5052737;28;20029;-82
2022/12/09 04:36:18;;;;;;;20.95;13.68;;;4.10;99.90;;;;;;5052999;28;20025;-82
2022/12/09 04:38:44;;;;;;;21.58;12.70;;;4.10;99.90;;;;;;5052903;28;20079;-82
2022/12/09 04:41:11;;;;;;;15.60;9.70;;;4.10;99.90;;;;;;5053113;28;20074;-82
2022/12/09 04:43:36;;;;;;;14.77;9.60;;;4.00;99.90;;;;;;5052755;28;20040;-82
2022/12/09 04:46:04;;;;;;;13.55;9.18;;;3.90;99.90;;;;;;5053736;28;20035;-82
2022/12/09 04:48:30;;;;;;;13.32;8.75;;;3.80;99.90;;;;;;5052510;28;20437;-82
2022/12/09 04:50:56;;;;;;;13.27;8.65;;;3.50;99.90;;;;;;5052862;28;20402;-82
2022/12/09 04:53:23;;;;;;;11.50;7.32;;;3.50;99.90;;;;;;5053536;28;20052;-82
2022/12/09 04:55:48;;;;;;;16.73;11.50;;;3.50;99.90;;;;;;5052460;28;20056;-82
2022/12/09 04:58:14;;;;;;;12.40;7.82;;;3.50;99.90;;;;;;5052551;28;20535;-82
2022/12/09 05:00:40;;;;;;;13.52;9.00;;;3.50;99.90;;;;;;5053223;28;20041;-82
2022/12/09 05:03:05;;;;;;;12.52;8.18;;;3.30;99.90;;;;;;5051769;28;20025;-82
2022/12/09 05:05:31;;;;;;;14.52;9.43;;;3.30;99.90;;;;;;5052617;28;20028;-82
2022/12/09 05:07:56;;;;;;;13.75;9.38;;;3.40;99.90;;;;;;5052122;28;20488;-82
2022/12/09 05:10:22;;;;;;;10.80;7.53;;;3.40;99.90;;;;;;5051622;28;20037;-82
2022/12/09 05:12:48;;;;;;;12.38;8.57;;;3.20;99.90;;;;;;5052139;28;20020;-82
2022/12/09 05:15:13;;;;;;;12.00;7.82;;;3.20;99.90;;;;;;5052484;28;20033;-82
2022/12/09 05:17:39;;;;;;;13.40;8.20;;;3.40;99.90;;;;;;5051421;28;20147;-82
2022/12/09 05:20:05;;;;;;;14.98;9.15;;;3.50;99.90;;;;;;5052074;28;20024;-82
2022/12/09 05:22:31;;;;;;;13.98;8.65;;;3.60;99.90;;;;;;5052259;28;20036;-82
2022/12/09 05:24:57;;;;;;;10.90;7.25;;;3.40;99.90;;;;;;5051503;28;20405;-83
2022/12/09 05:27:23;;;;;;;12.23;7.68;;;3.30;99.90;;;;;;5052063;28;20025;-83
2022/12/09 05:29:48;;;;;;;13.70;8.98;;;3.50;99.90;;;;;;5051533;28;20037;-83
2022/12/09 05:32:14;;;;;;;11.93;8.05;;;3.30;99.90;;;;;;5051483;28;20029;-82
2022/12/09 05:34:39;;;;;;;10.77;7.38;;;3.30;99.90;;;;;;5052852;28;20059;-83
2022/12/09 05:37:05;;;;;;;11.35;8.23;;;3.20;99.90;;;;;;5051452;28;20504;-83
2022/12/09 05:39:31;;;;;;;9.40;7.03;;;3.40;99.90;;;;;;5051593;28;20388;-82
2022/12/09 05:41:56;;;;;;;13.15;8.00;;;3.30;99.90;;;;;;5052190;28;20021;-82
2022/12/09 05:44:22;;;;;;;14.50;8.57;;;3.30;99.90;;;;;;5051616;28;20067;-82
2022/12/09 05:46:48;;;;;;;12.80;8.25;;;3.30;99.90;;;;;;5051457;28;20083;-82
2022/12/09 05:49:13;;;;;;;16.67;9.07;;;3.30;99.90;;;;;;5051790;28;20036;-82
2022/12/09 05:51:39;;;;;;;13.13;8.73;;;3.80;99.90;;;;;;5051667;28;20029;-82
2022/12/09 05:54:05;;;;;;;20.60;12.50;;;3.40;99.90;;;;;;5051688;28;20032;-82
2022/12/09 05:56:31;;;;;;;18.13;12.75;;;3.40;99.90;;;;;;5051797;28;20029;-82
2022/12/09 05:58:57;;;;;;;13.63;8.70;;;3.30;99.90;;;;;;5051843;28;20021;-82
2022/12/09 06:01:24;;;;;;;29.33;18.88;;;3.20;99.90;;;;;;5051412;28;20498;-82
2022/12/09 06:03:51;;;;;;;11.38;7.85;;;3.20;99.90;;;;;;5052873;28;20031;-82
2022/12/09 06:06:19;;;;;;;12.70;8.60;;;3.30;99.90;;;;;;5051592;28;20025;-82
2022/12/09 06:08:45;;;;;;;13.48;8.95;;;3.30;99.90;;;;;;5051408;28;20036;-82
2022/12/09 06:11:17;;;;;;;13.98;7.53;;;3.30;99.90;;;;;;5050515;28;20033;-82
2022/12/09 06:13:43;;;;;;;11.32;7.57;;;3.40;99.90;;;;;;5051634;28;20029;-83
2022/12/09 06:16:09;;;;;;;8.50;5.85;;;3.20;99.90;;;;;;5051499;28;20116;-83
2022/12/09 06:18:36;;;;;;;8.82;6.97;;;3.10;99.90;;;;;;5051087;28;20036;-82
2022/12/09 06:21:09;;;;;;;12.27;7.50;;;3.00;99.90;;;;;;5051558;28;20025;-81
2022/12/09 06:23:37;;;;;;;9.52;7.03;;;3.10;99.90;;;;;;5035930;28;20497;-82
2022/12/09 06:28:38;;;;;;;13.00;7.93;;;3.00;99.90;;;;;;5043027;22;20065;-82
2022/12/09 06:31:03;;;;;;;11.43;7.03;;;3.20;99.90;;;;;;5023892;28;20092;-82
2022/12/09 06:33:29;;;;;;;11.55;7.50;;;3.30;99.90;;;;;;5021162;28;20120;-82
2022/12/09 06:36:00;;;;;;;10.65;7.00;;;3.20;99.90;;;;;;5027164;28;20581;-82
2022/12/09 06:38:25;;;;;;;8.98;6.70;;;3.10;99.90;;;;;;5028417;28;20460;-82
2022/12/09 06:40:51;;;;;;;11.85;7.18;;;3.10;99.90;;;;;;5029644;28;20047;-82
2022/12/09 06:43:17;;;;;;;15.10;7.45;;;3.10;99.90;;;;;;5032480;28;20057;-82
2022/12/09 06:45:42;;;;;;;10.60;7.07;;;3.20;99.90;;;;;;5028384;28;20026;-82
2022/12/09 06:48:08;;;;;;;10.00;7.18;;;3.20;99.90;;;;;;5019781;28;20029;-82
2022/12/09 06:50:33;;;;;;;15.00;9.25;;;3.20;99.90;;;;;;5032266;28;20036;-82
2022/12/09 06:52:59;;;;;;;11.80;8.88;;;3.40;99.90;;;;;;5016394;28;20032;-82
2022/12/09 06:55:25;;;;;;;12.45;8.68;;;3.40;99.90;;;;;;5020289;28;20544;-82
2022/12/09 06:57:50;;;;;;;12.10;7.65;;;3.40;99.90;;;;;;5016747;28;20026;-82
2022/12/09 07:00:16;;;;;;;11.38;7.53;;;3.60;99.90;;;;;;5016904;28;20030;-82
2022/12/09 07:02:42;;;;;;;17.35;9.73;;;3.20;99.90;;;;;;5018037;28;20029;-82
2022/12/09 07:05:08;;;;;;;16.35;8.27;;;3.40;99.90;;;;;;5025516;28;20037;-82
2022/12/09 07:07:34;;;;;;;21.35;12.57;;;3.50;99.90;;;;;;4995496;28;20028;-82
2022/12/09 07:10:05;;;;;;;12.25;9.05;;;3.70;99.90;;;;;;5007386;28;20113;-81
2022/12/09 07:12:31;;;;;;;13.10;8.70;;;3.80;99.90;;;;;;5010504;28;20073;-82
2022/12/09 07:14:56;;;;;;;17.42;9.45;;;3.90;99.90;;;;;;5014480;28;20108;-82
2022/12/09 07:17:22;;;;;;;14.27;9.25;;;3.80;99.90;;;;;;5014493;28;20060;-81
2022/12/09 07:19:48;;;;;;;11.50;7.97;;;3.80;99.90;;;;;;5014635;28;20026;-82
2022/12/09 07:22:14;;;;;;;12.52;7.53;;;4.20;99.90;;;;;;5014473;28;20026;-82
2022/12/09 07:24:39;;;;;;;14.38;8.93;;;3.80;99.90;;;;;;5001359;28;20409;-82
2022/12/09 07:27:07;;;;;;;11.82;8.45;;;3.80;99.90;;;;;;5013445;28;20054;-82
2022/12/09 07:29:34;;;;;;;12.52;7.68;;;3.70;99.90;;;;;;5032934;28;20517;-82
2022/12/09 07:32:01;;;;;;;12.57;8.63;;;3.70;99.90;;;;;;5024654;28;20105;-82
2022/12/09 07:34:26;;;;;;;13.18;8.07;;;3.50;99.90;;;;;;5034428;28;20426;-82
2022/12/09 07:36:52;;;;;;;15.80;9.10;;;3.60;99.90;;;;;;5034388;28;20064;-82
2022/12/09 07:39:18;;;;;;;13.48;9.35;;;3.80;99.90;;;;;;5034564;28;20064;-82
2022/12/09 07:41:44;;;;;;;10.85;7.43;;;3.80;99.90;;;;;;5033945;28;20024;-82
2022/12/09 07:44:11;;;;;;;25.77;15.90;;;3.80;99.90;;;;;;5034674;28;20112;-82
2022/12/09 07:46:37;;;;;;;11.85;8.57;;;3.70;99.90;;;;;;5032802;28;20030;-82
2022/12/09 07:49:04;;;;;;;21.50;14.40;;;3.70;99.90;;;;;;5032861;28;20389;-82
2022/12/09 07:51:30;;;;;;;20.58;12.80;;;3.80;99.90;;;;;;5032886;28;20029;-82
2022/12/09 07:53:56;;;;;;;23.52;15.15;;;3.70;99.90;;;;;;5032353;28;20026;-81
2022/12/09 07:56:22;;;;;;;38.20;26.48;;;3.60;99.90;;;;;;5033611;28;20048;-82
2022/12/09 07:58:52;;;;;;;14.40;9.27;;;3.60;99.90;;;;;;5033969;28;20022;-82
2022/12/09 08:01:20;;;;;;;11.57;7.75;;;3.50;99.90;;;;;;5033776;28;20038;-81
2022/12/09 08:03:47;;;;;;;22.77;12.88;;;3.60;99.90;;;;;;5034623;28;20026;-82
2022/12/09 08:06:18;;;;;;;8.27;6.00;;;3.60;99.90;;;;;;5034034;28;20033;-82
2022/12/09 08:08:44;;;;;;;11.90;7.47;;;3.60;99.90;;;;;;5033766;28;20021;-82
2022/12/09 08:11:13;;;;;;;16.52;10.70;;;3.70;99.90;;;;;;5033387;28;20037;-82
2022/12/09 08:13:40;;;;;;;15.63;10.75;;;3.70;99.90;;;;;;5016797;28;20080;-81
2022/12/09 08:16:08;;;;;;;7.82;6.38;;;3.70;99.90;;;;;;5013772;28;20371;-82
2022/12/09 08:18:34;;;;;;;7.97;5.97;;;3.60;99.90;;;;;;5013881;28;20113;-82
2022/12/09 08:21:04;;;;;;;11.93;9.02;;;3.60;99.90;;;;;;5012567;28;20022;-82
2022/12/09 08:23:30;;;;;;;11.85;7.53;;;3.60;99.90;;;;;;5013788;28;20057;-82
2022/12/09 08:25:56;;;;;;;10.80;8.00;;;3.60;99.90;;;;;;5014039;28;20601;-82
2022/12/09 08:28:22;;;;;;;13.27;9.48;;;3.80;99.90;;;;;;5013531;28;20050;-82
2022/12/09 08:30:48;;;;;;;9.40;6.78;;;3.90;99.90;;;;;;5013522;28;20041;-82
2022/12/09 08:33:14;;;;;;;11.65;7.50;;;3.90;99.90;;;;;;5019705;28;20079;-81
2022/12/09 08:35:40;;;;;;;11.57;7.95;;;4.00;99.90;;;;;;5033310;28;20033;-81
2022/12/09 08:38:06;;;;;;;15.02;11.50;;;4.10;99.90;;;;;;5033632;28;20026;-82
2022/12/09 08:40:31;;;;;;;13.02;7.75;;;4.10;99.90;;;;;;5031459;28;20032;-82
2022/12/09 08:42:57;;;;;;;12.77;8.60;;;4.00;99.90;;;;;;5033312;28;20159;-82
2022/12/09 08:45:23;;;;;;;9.95;7.82;;;4.20;99.90;;;;;;5033054;28;20025;-82
2022/12/09 08:47:49;;;;;;;12.95;7.35;;;4.10;99.90;;;;;;5033442;28;20053;-82
2022/12/09 08:50:15;;;;;;;11.07;7.45;;;4.20;99.90;;;;;;5032988;28;20027;-82
2022/12/09 08:52:41;;;;;;;9.93;7.45;;;4.00;99.90;;;;;;5033063;28;20014;-82
2022/12/09 08:55:08;;;;;;;9.55;7.20;;;4.00;99.90;;;;;;5032529;28;20034;-82
2022/12/09 08:57:34;;;;;;;21.23;15.55;;;3.90;99.90;;;;;;5031552;28;20446;-82
2022/12/09 08:59:59;;;;;;;11.73;9.45;;;3.90;99.90;;;;;;5032745;28;20052;-82
2022/12/09 09:02:25;;;;;;;9.52;7.40;;;4.10;99.90;;;;;;5033106;28;20025;-82
2022/12/09 09:04:50;;;;;;;9.10;7.20;;;3.80;99.90;;;;;;5032609;28;20429;-82
2022/12/09 09:07:16;;;;;;;9.48;7.28;;;3.80;99.90;;;;;;5032006;28;20454;-82
2022/12/09 09:09:42;;;;;;;12.30;8.23;;;3.90;99.90;;;;;;5032183;28;20484;-82
2022/12/09 09:12:07;;;;;;;13.00;8.77;;;4.00;99.90;;;;;;5028189;28;20029;-82
2022/12/09 09:14:33;;;;;;;9.73;6.57;;;4.10;99.90;;;;;;5012330;28;20593;-82
2022/12/09 09:16:59;;;;;;;9.93;7.22;;;4.00;99.90;;;;;;5012713;28;20018;-82
2022/12/09 09:19:25;;;;;;;12.90;9.10;;;4.00;99.90;;;;;;5013203;28;20029;-82
2022/12/09 09:21:52;;;;;;;13.48;10.73;;;4.00;99.90;;;;;;5012782;28;20021;-82
2022/12/09 09:24:20;;;;;;;13.35;9.65;;;3.90;99.90;;;;;;5012403;28;20034;-82
2022/12/09 09:26:47;;;;;;;11.07;9.25;;;3.90;99.90;;;;;;5012449;28;20125;-82
2022/12/09 09:29:14;;;;;;;11.88;7.95;;;3.90;99.90;;;;;;5012607;28;20041;-82
2022/12/09 09:31:40;;;;;;;9.82;7.20;;;4.00;99.90;;;;;;5012481;28;20033;-82
2022/12/09 09:34:06;;;;;;;9.63;7.35;;;3.90;99.90;;;;;;5026012;28;20030;-82
2022/12/09 09:36:32;;;;;;;10.68;7.80;;;3.90;99.90;;;;;;5032166;28;20037;-82
2022/12/09 09:38:58;;;;;;;11.73;8.43;;;3.90;99.90;;;;;;5032125;28;20104;-82
2022/12/09 09:41:52;;;;;;;7.93;6.88;;;4.00;99.90;;;;;;5032594;28;20040;-82
2022/12/09 09:44:47;;;;;;;8.02;6.95;;;4.00;99.90;;;;;;5032363;28;20030;-82
2022/12/09 09:47:18;;;;;;;7.85;6.78;;;4.00;99.90;;;;;;5030394;28;20041;-82
2022/12/09 09:49:51;;;;;;;8.52;5.95;;;4.00;99.90;;;;;;5032388;28;20022;-82
2022/12/09 09:52:19;;;;;;;11.45;9.00;;;4.00;99.90;;;;;;5031860;28;20034;-82
2022/12/09 09:54:45;;;;;;;9.82;6.78;;;3.80;99.90;;;;;;5031910;28;20026;-82
2022/12/09 09:57:29;;;;;;;10.95;7.25;;;3.80;99.90;;;;;;5031841;28;20029;-82
2022/12/09 10:00:01;;;;;;;8.98;6.28;;;3.80;99.90;;;;;;5032095;28;20068;-82
2022/12/09 10:02:39;;;;;;;10.80;7.68;;;4.00;99.90;;;;;;5032874;28;20504;-82
2022/12/09 10:05:20;;;;;;;8.40;6.82;;;4.10;99.90;;;;;;5031945;28;20026;-82
2022/12/09 10:07:52;;;;;;;9.35;7.13;;;4.00;99.90;;;;;;5031578;28;20086;-82
2022/12/09 10:10:55;;;;;;;9.73;8.38;;;4.00;99.90;;;;;;5032185;28;20049;-82
2022/12/09 10:14:02;;;;;;;7.78;6.22;;;4.20;99.90;;;;;;5017426;28;20033;-82
2022/12/09 10:16:46;;;;;;;11.25;8.70;;;4.20;99.90;;;;;;5012074;28;20048;-82
2022/12/09 10:19:32;;;;;;;9.77;6.43;;;4.20;99.90;;;;;;5016073;28;20018;-82
2022/12/09 10:22:10;;;;;;;14.10;9.63;;;4.30;99.90;;;;;;5015596;28;20034;-83
2022/12/09 10:24:50;;;;;;;13.13;9.27;;;4.30;99.90;;;;;;5016313;28;20026;-82
2022/12/09 10:27:27;;;;;;;14.55;9.77;;;4.40;99.90;;;;;;5015664;28;20046;-82
2022/12/09 10:29:57;;;;;;;13.63;8.90;;;4.50;99.90;;;;;;5015867;28;20037;-82
2022/12/09 10:32:28;;;;;;;11.38;7.72;;;4.50;99.90;;;;;;5015758;28;20030;-82
2022/12/09 10:34:54;;;;;;;9.18;7.30;;;4.50;99.90;;;;;;4996347;28;20392;-82
2022/12/09 10:37:33;;;;;;;10.18;7.45;;;4.60;99.90;;;;;;4996645;28;20010;-82
2022/12/09 10:40:21;;;;;;;10.27;8.25;;;4.50;99.90;;;;;;4996087;28;20037;-82
2022/12/09 10:45:40;;;;;;;14.13;10.95;;;4.60;99.90;;;;;;4996322;28;20382;-82
2022/12/09 10:48:26;;;;;;;7.50;6.70;;;4.50;99.90;;;;;;4996427;28;20041;-82
2022/12/09 10:50:56;;;;;;;8.40;7.15;;;4.70;99.90;;;;;;4994595;28;20034;-82
2022/12/09 10:53:22;;;;;;;8.93;7.53;;;4.70;99.90;;;;;;4996264;28;20100;-82
2022/12/09 10:55:53;;;;;;;9.50;7.53;;;4.70;99.90;;;;;;4995730;28;20030;-82
2022/12/09 10:58:22;;;;;;;8.93;7.55;;;5.10;99.90;;;;;;4995416;28;20023;-82
2022/12/09 11:01:17;;;;;;;7.70;6.90;;;4.70;99.90;;;;;;4996189;28;20049;-82
2022/12/09 11:03:47;;;;;;;9.43;7.95;;;4.80;99.90;;;;;;4982951;28;20093;-82
2022/12/09 11:06:15;;;;;;;8.50;7.38;;;5.00;99.90;;;;;;4994094;28;20402;-82
2022/12/09 11:08:49;;;;;;;7.10;6.32;;;4.90;99.90;;;;;;4995531;28;20446;-83
2022/12/09 11:11:16;;;;;;;8.70;6.30;;;4.90;99.90;;;;;;4995490;28;20045;-82
2022/12/09 11:13:42;;;;;;;9.35;7.90;;;4.80;99.90;;;;;;5012674;28;20104;-82
2022/12/09 11:16:10;;;;;;;12.30;7.85;;;4.80;99.90;;;;;;5015093;28;20030;-82
2022/12/09 11:18:47;;;;;;;7.45;6.38;;;4.90;99.90;;;;;;5014997;28;20490;-83
2022/12/09 11:21:48;;;;;;;7.55;6.47;;;4.80;99.90;;;;;;5015021;28;20152;-83
2022/12/09 11:24:20;;;;;;;8.10;5.95;;;4.90;99.90;;;;;;4954174;29;20042;-82
2022/12/09 11:26:45;;;;;;;8.43;6.25;;;5.00;99.90;;;;;;4954415;28;20038;-82
2022/12/09 11:29:17;;;;;;;8.90;6.85;;;5.00;99.90;;;;;;4953124;28;20035;-82
2022/12/09 11:31:44;;;;;;;6.95;6.03;;;5.00;99.90;;;;;;4938354;29;20574;-82
2022/12/09 11:34:28;;;;;;;7.70;6.45;;;5.10;99.90;;;;;;4953845;28;20019;-82
2022/12/09 11:36:57;;;;;;;8.07;6.60;;;5.20;99.90;;;;;;4954266;29;20038;-82
2022/12/09 11:39:23;;;;;;;9.77;7.68;;;5.10;99.90;;;;;;4937746;29;20027;-82
2022/12/09 11:42:16;;;;;;;10.32;6.95;;;5.10;99.90;;;;;;4954220;29;20110;-82
2022/12/09 11:44:55;;;;;;;8.52;6.85;;;5.10;99.90;;;;;;4953994;29;20051;-82
2022/12/09 11:47:32;;;;;;;7.93;6.32;;;4.90;99.90;;;;;;4954339;29;20035;-82
2022/12/09 11:50:19;;;;;;;9.15;7.25;;;4.90;99.90;;;;;;4953515;29;20027;-82
2022/12/09 11:52:45;;;;;;;12.60;10.05;;;4.90;99.90;;;;;;4953873;29;20655;-82
2022/12/09 11:55:17;;;;;;;9.25;6.65;;;4.90;99.90;;;;;;4953858;29;20455;-82
2022/12/09 11:58:17;;;;;;;9.23;7.88;;;5.00;99.90;;;;;;4966268;28;20120;-82
2022/12/09 12:00:57;;;;;;;9.85;7.65;;;4.90;99.90;;;;;;4934992;29;20032;-82
2022/12/09 12:03:35;;;;;;;8.52;7.10;;;4.80;99.90;;;;;;4934124;28;20527;-82
2022/12/09 12:06:06;;;;;;;13.10;10.77;;;4.80;99.90;;;;;;4934584;29;20412;-82
2022/12/09 12:08:42;;;;;;;11.02;9.18;;;4.80;99.90;;;;;;4934279;29;20040;-82
2022/12/09 12:11:13;;;;;;;12.15;9.98;;;4.70;99.90;;;;;;4934943;29;20109;-82
2022/12/09 12:13:59;;;;;;;7.97;7.10;;;4.60;99.90;;;;;;4950819;29;20024;-82
2022/12/09 12:17:02;;;;;;;8.52;6.50;;;4.80;99.90;;;;;;4953377;29;20483;-82
2022/12/09 12:19:33;;;;;;;10.07;8.05;;;4.90;99.90;;;;;;4953052;29;20447;-82
2022/12/09 12:22:31;;;;;;;9.02;7.90;;;5.10;99.90;;;;;;4953568;29;20027;-83
2022/12/09 12:25:22;;;;;;;8.35;6.93;;;5.00;99.90;;;;;;4950624;28;20392;-82
2022/12/09 12:28:10;;;;;;;9.45;7.68;;;5.00;99.90;;;;;;4953037;29;20058;-82
2022/12/09 12:31:28;;;;;;;28.75;18.55;;;5.10;99.90;;;;;;4952723;29;20419;-82
2022/12/09 12:34:30;;;;;;;13.43;9.48;;;5.10;99.90;;;;;;4933565;29;20036;-82
2022/12/09 12:37:04;;;;;;;18.73;11.60;;;5.10;99.90;;;;;;4919626;29;20548;-82
2022/12/09 12:40:02;;;;;;;20.23;13.77;;;5.10;99.90;;;;;;4914992;29;20128;-83
2022/12/09 12:46:16;;;;;;;9.65;8.10;;;5.20;99.90;;;;;;4896322;29;20620;-82
2022/12/09 12:49:18;;;;;;;11.55;9.18;;;4.80;99.90;;;;;;4895963;29;20426;-82
2022/12/09 12:51:49;;;;;;;11.13;8.40;;;4.70;99.90;;;;;;4895625;29;20045;-82
2022/12/09 12:54:25;;;;;;;15.50;12.05;;;4.90;99.90;;;;;;4895827;29;20032;-83
2022/12/09 12:57:05;;;;;;;12.52;9.50;;;4.80;99.90;;;;;;4895576;29;20562;-82
2022/12/09 12:59:51;;;;;;;13.15;9.82;;;5.00;99.90;;;;;;4895648;29;20044;-82
2022/12/09 13:02:32;;;;;;;9.73;7.47;;;4.70;99.90;;;;;;4895286;29;20036;-82
2022/12/09 13:05:02;;;;;;;13.90;10.32;;;4.60;99.90;;;;;;4922434;29;20051;-83
2022/12/09 13:07:43;;;;;;;10.40;8.00;;;5.10;99.90;;;;;;4933343;29;20115;-82
2022/12/09 13:10:31;;;;;;;10.25;8.32;;;4.90;99.90;;;;;;4933485;29;20044;-82
2022/12/09 13:13:00;;;;;;;13.43;8.77;;;4.80;99.90;;;;;;4944159;29;20411;-83